Airfield :
LOGIN :

Register | Disclaimer

   EN    FR    IT 

 










Legend :    VFR   Marginal VFR   IFR   Intensive IFR   Very Intensive IFR
Visi :
Ceiling :
>= 8 km
>= 3000ft
5 to 8 km
1000 to 3000 ft
1500m to 5 km
500 to 1000 ft
800 to 1500m
200 to 500 ft
< 800m
< 200 ft
Symbols :   Thunderstorms  Fog  Heavy snow  Heavy precipitations  Wind > 20 kt
SIGMETs :     Misc.  Thunderstorms  Icing  Turbulence  Mountain Waves  Volcanic Ashes







- Airport Elevation : 202 ft
- IATA code : LGW
- Download approach charts


EGKK - London Gatwick

CURRENT METAR :
  • 181550Z 23010KT 9999 SCT028 08/03 Q1002

EXPIRED METARs :
  • 181520Z 25014KT 9999 SCT048 08/03 Q1002
  • 181450Z 26011KT 9999 -SHRA SCT033 08/03 Q1002
  • 181420Z 25014KT 9999 FEW033 SCT044 08/03 Q1002
  • 181350Z 25014KT 9999 SCT030 SCT045 09/03 Q1002
  • 181320Z 26017KT 9999 SCT032 09/03 Q1002
  • 181250Z 25015KT 9999 SCT031 BKN036 09/03 Q1002

TAF AMD TAF EGKK
Valid from the 18 at 12:00 until the 19 at 18:00 UTC


181141Z 1812/1918 26012KT 9999 FEW030
TEMPO 1812/1817 27015G25KT
PROB30
TEMPO 1814/1819 7000 SHRA
PROB30
TEMPO 1913/1916 7000 SHRA
No reported NOTAMs for that airfield.



MET'MAP, your aeronautical weather chart ! - Copyright ORBIFLY December 2007 - Disclaimer

ORBIFLY MET'MAP TEAM :

Programming & Development : Alexandra Zaïnal
Concept & Development : Baudouin d'Aumeries
Co-Development & Prog : Marc-Olivier Méhu
Technical & hardware support : Manuel Goepfert

Contact : metmap@orbifly.com




SOURCES & CREDITS :

   NOAA